createdAt,value
2023-05-19T00:00:01.219Z,101660
2023-05-19T00:01:00.921Z,101660
2023-05-19T00:02:00.961Z,101660
2023-05-19T00:03:00.886Z,101660
2023-05-19T00:04:00.892Z,101660
2023-05-19T00:05:00.899Z,101660
2023-05-19T00:06:01.228Z,101660
2023-05-19T00:07:01.970Z,101660
2023-05-19T00:08:01.881Z,101660
2023-05-19T00:09:01.922Z,101660
2023-05-19T00:10:00.898Z,101660
2023-05-19T00:11:01.015Z,101650
2023-05-19T00:12:00.913Z,101650
2023-05-19T00:13:00.904Z,101650
2023-05-19T00:14:01.583Z,101650
2023-05-19T00:15:00.973Z,101650
2023-05-19T00:16:00.975Z,101650
2023-05-19T00:17:00.971Z,101640
2023-05-19T00:18:00.820Z,101640
2023-05-19T00:19:01.840Z,101650
2023-05-19T00:20:00.880Z,101640
2023-05-19T00:21:00.803Z,101640
2023-05-19T00:22:00.832Z,101640
2023-05-19T00:23:00.812Z,101640
2023-05-19T00:24:00.803Z,101640
2023-05-19T00:25:00.777Z,101630
2023-05-19T00:26:00.833Z,101630
2023-05-19T00:27:00.816Z,101630
2023-05-19T00:28:01.273Z,101630
2023-05-19T00:29:00.763Z,101630
2023-05-19T00:30:00.831Z,101630
2023-05-19T00:31:01.495Z,101630
2023-05-19T00:32:00.880Z,101630
2023-05-19T00:33:00.866Z,101630
2023-05-19T00:34:00.840Z,101630
2023-05-19T00:35:00.816Z,101630
2023-05-19T00:36:02.721Z,101630
2023-05-19T00:37:00.866Z,101630
2023-05-19T00:38:00.797Z,101630
2023-05-19T00:39:00.775Z,101630
2023-05-19T00:40:00.774Z,101620
2023-05-19T00:41:01.474Z,101630
2023-05-19T00:42:00.892Z,101630
2023-05-19T00:43:00.955Z,101630
2023-05-19T00:44:00.808Z,101630
2023-05-19T00:45:00.815Z,101620
2023-05-19T00:46:01.179Z,101620
2023-05-19T00:47:01.372Z,101620
2023-05-19T00:48:00.821Z,101620
2023-05-19T00:49:00.768Z,101610
2023-05-19T00:50:00.816Z,101620
2023-05-19T00:51:02.597Z,101620
2023-05-19T00:52:00.888Z,101610
2023-05-19T00:53:00.887Z,101610
2023-05-19T00:54:00.846Z,101610
2023-05-19T00:55:01.038Z,101610
2023-05-19T00:56:01.993Z,101610
2023-05-19T00:57:00.935Z,101610
2023-05-19T00:58:01.070Z,101610
2023-05-19T00:59:01.329Z,101610
2023-05-19T01:00:00.905Z,101610
2023-05-19T01:01:00.869Z,101610
2023-05-19T01:02:00.842Z,101610
2023-05-19T01:03:01.076Z,101600
2023-05-19T01:04:01.341Z,101600
2023-05-19T01:05:00.994Z,101600
2023-05-19T01:06:01.354Z,101600
2023-05-19T01:07:00.890Z,101600
2023-05-19T01:08:01.200Z,101600
2023-05-19T01:09:00.815Z,101590
2023-05-19T01:10:00.849Z,101590
2023-05-19T01:11:00.809Z,101590
2023-05-19T01:12:00.865Z,101590
2023-05-19T01:13:01.531Z,101600
2023-05-19T01:14:00.853Z,101590
2023-05-19T01:15:01.685Z,101590
2023-05-19T01:16:06.836Z,101590
2023-05-19T01:17:08.713Z,101590
2023-05-19T01:18:04.187Z,101590
2023-05-19T01:19:00.826Z,101590
2023-05-19T01:20:10.684Z,101590
2023-05-19T01:21:10.661Z,101590
2023-05-19T01:22:00.788Z,101590
2023-05-19T01:23:10.681Z,101590
2023-05-19T01:24:08.149Z,101590
2023-05-19T01:25:10.677Z,101590
2023-05-19T01:26:10.668Z,101580
2023-05-19T01:27:04.095Z,101580
2023-05-19T01:28:04.153Z,101590
2023-05-19T01:29:07.216Z,101580
2023-05-19T01:30:10.706Z,101590
2023-05-19T01:31:00.914Z,101590
2023-05-19T01:32:03.582Z,101590
2023-05-19T01:33:01.984Z,101590
2023-05-19T01:34:01.801Z,101590
2023-05-19T01:35:02.751Z,101590
2023-05-19T01:36:02.517Z,101590
2023-05-19T01:37:01.712Z,101590
2023-05-19T01:38:02.670Z,101580
2023-05-19T01:39:01.385Z,101580
2023-05-19T01:40:00.906Z,101580
2023-05-19T01:41:02.044Z,101580
2023-05-19T01:42:01.338Z,101580
2023-05-19T01:43:01.016Z,101580
2023-05-19T01:44:01.115Z,101580
2023-05-19T01:45:01.216Z,101580
2023-05-19T01:46:01.747Z,101580
2023-05-19T01:47:01.426Z,101570
2023-05-19T01:48:03.034Z,101570
2023-05-19T01:49:01.024Z,101570
2023-05-19T01:50:00.881Z,101570
2023-05-19T01:51:00.900Z,101570
2023-05-19T01:52:01.113Z,101560
2023-05-19T01:53:01.044Z,101570
2023-05-19T01:54:00.880Z,101560
2023-05-19T01:55:01.004Z,101560
2023-05-19T01:56:00.952Z,101560
2023-05-19T01:57:01.792Z,101560
2023-05-19T01:58:10.670Z,101560
2023-05-19T01:59:06.472Z,101560
2023-05-19T02:00:09.033Z,101560
2023-05-19T02:01:07.133Z,101560
2023-05-19T02:02:04.737Z,101560
2023-05-19T02:03:02.137Z,101560
2023-05-19T02:04:00.837Z,101560
2023-05-19T02:05:04.820Z,101550
2023-05-19T02:06:10.730Z,101560
2023-05-19T02:07:04.534Z,101550
2023-05-19T02:08:07.406Z,101550
2023-05-19T02:09:10.664Z,101550
2023-05-19T02:10:10.678Z,101540
2023-05-19T02:11:04.151Z,101550
2023-05-19T02:12:10.663Z,101550
2023-05-19T02:13:03.333Z,101550
2023-05-19T02:14:02.319Z,101550
2023-05-19T02:15:04.171Z,101550
2023-05-19T02:16:03.486Z,101550
2023-05-19T02:17:03.361Z,101550
2023-05-19T02:18:01.663Z,101550
2023-05-19T02:19:00.852Z,101550
2023-05-19T02:20:01.900Z,101550
2023-05-19T02:21:01.189Z,101540
2023-05-19T02:22:00.768Z,101550
2023-05-19T02:23:00.791Z,101550
2023-05-19T02:24:00.815Z,101550
2023-05-19T02:25:00.924Z,101550
2023-05-19T02:26:00.781Z,101550
2023-05-19T02:27:00.854Z,101550
2023-05-19T02:28:00.845Z,101550
2023-05-19T02:29:00.779Z,101550
2023-05-19T02:30:01.181Z,101550
2023-05-19T02:31:01.084Z,101550
2023-05-19T02:32:00.850Z,101550
2023-05-19T02:33:00.879Z,101550
2023-05-19T02:34:00.778Z,101550
2023-05-19T02:35:01.333Z,101550
2023-05-19T02:36:00.894Z,101550
2023-05-19T02:37:00.881Z,101550
2023-05-19T02:38:00.830Z,101550
2023-05-19T02:39:01.083Z,101550
2023-05-19T02:40:00.815Z,101550
2023-05-19T02:41:00.872Z,101550
2023-05-19T02:42:00.832Z,101540
2023-05-19T02:43:00.891Z,101550
2023-05-19T02:44:00.824Z,101550
2023-05-19T02:45:00.803Z,101550
2023-05-19T02:46:00.861Z,101550
2023-05-19T02:47:00.883Z,101550
2023-05-19T02:48:00.913Z,101550
2023-05-19T02:49:00.830Z,101540
2023-05-19T02:50:00.903Z,101550
2023-05-19T02:51:00.793Z,101550
2023-05-19T02:52:02.303Z,101540
2023-05-19T02:53:00.862Z,101540
2023-05-19T02:54:00.854Z,101540
2023-05-19T02:55:00.797Z,101540
2023-05-19T02:56:00.784Z,101540
2023-05-19T02:57:00.849Z,101540
2023-05-19T02:58:00.834Z,101540
2023-05-19T02:59:00.801Z,101540
2023-05-19T03:00:00.793Z,101540
2023-05-19T03:01:00.801Z,101540
2023-05-19T03:02:01.255Z,101530
2023-05-19T03:03:00.892Z,101530
2023-05-19T03:04:00.922Z,101530
2023-05-19T03:05:00.892Z,101530
2023-05-19T03:06:00.823Z,101530
2023-05-19T03:07:00.800Z,101540
2023-05-19T03:08:00.820Z,101530
2023-05-19T03:09:00.789Z,101530
2023-05-19T03:10:01.034Z,101530
2023-05-19T03:11:01.365Z,101540
2023-05-19T03:12:00.802Z,101530
2023-05-19T03:13:00.857Z,101540
2023-05-19T03:14:00.814Z,101540
2023-05-19T03:15:00.956Z,101530
2023-05-19T03:16:00.816Z,101530
2023-05-19T03:17:00.829Z,101530
2023-05-19T03:18:00.977Z,101530
2023-05-19T03:19:00.843Z,101530
2023-05-19T03:20:00.878Z,101530
2023-05-19T03:21:00.787Z,101530
2023-05-19T03:22:01.079Z,101530
2023-05-19T03:23:00.797Z,101530
2023-05-19T03:24:01.048Z,101530
2023-05-19T03:25:01.064Z,101530
2023-05-19T03:26:00.877Z,101520
2023-05-19T03:27:00.956Z,101530
2023-05-19T03:28:00.859Z,101520
2023-05-19T03:29:00.802Z,101520
2023-05-19T03:30:00.834Z,101520
2023-05-19T03:31:00.876Z,101520
2023-05-19T03:32:00.818Z,101520
2023-05-19T03:33:00.843Z,101520
2023-05-19T03:34:00.814Z,101520
2023-05-19T03:35:00.810Z,101510
2023-05-19T03:36:00.860Z,101510
2023-05-19T03:37:00.832Z,101510
2023-05-19T03:38:00.919Z,101510
2023-05-19T03:39:00.805Z,101510
2023-05-19T03:40:00.943Z,101510
2023-05-19T03:41:00.820Z,101510
2023-05-19T03:42:00.860Z,101510
2023-05-19T03:43:00.868Z,101510
2023-05-19T03:44:00.969Z,101510
2023-05-19T03:45:01.349Z,101510
2023-05-19T03:46:00.898Z,101510
2023-05-19T03:47:00.819Z,101510
2023-05-19T03:48:00.905Z,101510
2023-05-19T03:49:00.806Z,101500
2023-05-19T03:50:00.800Z,101500
2023-05-19T03:51:00.797Z,101500
2023-05-19T03:52:00.887Z,101500
2023-05-19T03:53:00.821Z,101500
2023-05-19T03:54:00.902Z,101500
2023-05-19T03:55:00.807Z,101500
2023-05-19T03:56:00.866Z,101500
2023-05-19T03:57:01.101Z,101500
2023-05-19T03:58:00.814Z,101500
2023-05-19T03:59:00.861Z,101500
2023-05-19T04:00:01.079Z,101500
2023-05-19T04:01:00.822Z,101500
2023-05-19T04:02:00.803Z,101490
2023-05-19T04:03:00.987Z,101490
2023-05-19T04:04:00.984Z,101490
2023-05-19T04:05:00.809Z,101490
2023-05-19T04:06:00.934Z,101490
2023-05-19T04:07:00.798Z,101490
2023-05-19T04:08:00.829Z,101490
2023-05-19T04:09:01.387Z,101490
2023-05-19T04:10:03.210Z,101490
2023-05-19T04:11:00.811Z,101490
2023-05-19T04:12:01.092Z,101490
2023-05-19T04:13:00.833Z,101490
2023-05-19T04:14:00.810Z,101480
2023-05-19T04:15:00.828Z,101490
2023-05-19T04:16:00.967Z,101490
2023-05-19T04:17:00.838Z,101490
2023-05-19T04:18:00.798Z,101490
2023-05-19T04:19:00.848Z,101490
2023-05-19T04:20:00.786Z,101490
2023-05-19T04:21:00.853Z,101490
2023-05-19T04:22:00.825Z,101490
2023-05-19T04:23:00.813Z,101490
2023-05-19T04:24:00.845Z,101490
2023-05-19T04:25:00.834Z,101490
2023-05-19T04:26:00.832Z,101490
2023-05-19T04:27:00.937Z,101490
2023-05-19T04:28:00.913Z,101500
2023-05-19T04:29:00.836Z,101500
2023-05-19T04:30:01.019Z,101500
2023-05-19T04:31:00.864Z,101500
2023-05-19T04:32:00.908Z,101500
2023-05-19T04:33:00.818Z,101500
2023-05-19T04:34:00.809Z,101500
2023-05-19T04:35:00.826Z,101500
2023-05-19T04:36:00.822Z,101500
2023-05-19T04:37:01.170Z,101500
2023-05-19T04:38:00.821Z,101500
2023-05-19T04:39:00.806Z,101500
2023-05-19T04:40:00.829Z,101500
2023-05-19T04:41:00.810Z,101500
2023-05-19T04:42:00.813Z,101500
2023-05-19T04:43:00.837Z,101500
2023-05-19T04:44:00.795Z,101500
2023-05-19T04:45:00.808Z,101500
2023-05-19T04:46:00.925Z,101500
2023-05-19T04:47:01.053Z,101490
2023-05-19T04:48:00.894Z,101490
2023-05-19T04:49:00.802Z,101500
2023-05-19T04:50:00.965Z,101490
2023-05-19T04:51:00.840Z,101490
2023-05-19T04:52:00.812Z,101490
2023-05-19T04:53:00.815Z,101490
2023-05-19T04:54:00.845Z,101490
2023-05-19T04:55:00.894Z,101490
2023-05-19T04:56:00.872Z,101490
2023-05-19T04:57:00.818Z,101490
2023-05-19T04:58:00.895Z,101490
2023-05-19T04:59:00.819Z,101490
2023-05-19T05:00:00.776Z,101490
2023-05-19T05:01:00.769Z,101490
2023-05-19T05:02:00.821Z,101490
2023-05-19T05:03:00.914Z,101490
2023-05-19T05:04:00.807Z,101490
2023-05-19T05:05:00.859Z,101490
2023-05-19T05:06:00.798Z,101490
2023-05-19T05:07:00.804Z,101490
2023-05-19T05:08:00.809Z,101490
2023-05-19T05:09:00.810Z,101490
2023-05-19T05:10:00.875Z,101490
2023-05-19T05:11:00.942Z,101490
2023-05-19T05:12:01.137Z,101490
2023-05-19T05:13:00.890Z,101490
2023-05-19T05:14:00.982Z,101490
2023-05-19T05:15:00.968Z,101490
2023-05-19T05:16:01.150Z,101480
2023-05-19T05:17:00.936Z,101480
2023-05-19T05:18:00.967Z,101480
2023-05-19T05:19:01.345Z,101480
2023-05-19T05:20:01.571Z,101480
2023-05-19T05:21:01.028Z,101480
2023-05-19T05:22:01.113Z,101480
2023-05-19T05:23:00.933Z,101480
2023-05-19T05:24:01.030Z,101480
2023-05-19T05:25:00.988Z,101490
2023-05-19T05:26:04.040Z,101490
2023-05-19T05:27:00.884Z,101480
2023-05-19T05:28:00.868Z,101480
2023-05-19T05:29:01.275Z,101490
2023-05-19T05:30:00.810Z,101480
2023-05-19T05:31:00.828Z,101490
2023-05-19T05:32:00.957Z,101480
2023-05-19T05:33:01.275Z,101480
2023-05-19T05:34:00.832Z,101480
2023-05-19T05:35:00.947Z,101480
2023-05-19T05:36:00.837Z,101490
2023-05-19T05:37:00.817Z,101480
2023-05-19T05:38:01.354Z,101480
2023-05-19T05:39:00.840Z,101480
2023-05-19T05:40:00.796Z,101490
2023-05-19T05:41:00.915Z,101490
2023-05-19T05:42:00.790Z,101490
2023-05-19T05:43:00.797Z,101490
2023-05-19T05:44:01.088Z,101490
2023-05-19T05:45:00.816Z,101490
2023-05-19T05:46:00.846Z,101490
2023-05-19T05:47:01.588Z,101490
2023-05-19T05:48:01.122Z,101490
2023-05-19T05:49:01.101Z,101490
2023-05-19T05:50:00.936Z,101490
2023-05-19T05:51:00.964Z,101490
2023-05-19T05:52:06.180Z,101490
2023-05-19T05:53:01.951Z,101490
2023-05-19T05:54:01.607Z,101490
2023-05-19T05:55:00.921Z,101490
2023-05-19T05:56:00.952Z,101490
2023-05-19T05:57:01.009Z,101490
2023-05-19T05:58:00.809Z,101480
2023-05-19T05:59:01.114Z,101490
2023-05-19T06:00:00.875Z,101480
2023-05-19T06:01:00.805Z,101480
2023-05-19T06:02:00.862Z,101480
2023-05-19T06:03:00.871Z,101480
2023-05-19T06:04:00.826Z,101480
2023-05-19T06:05:00.901Z,101470
2023-05-19T06:06:00.989Z,101470
2023-05-19T06:07:00.808Z,101480
2023-05-19T06:08:00.894Z,101470
2023-05-19T06:09:00.791Z,101470
2023-05-19T06:10:00.806Z,101470
2023-05-19T06:11:00.875Z,101480
2023-05-19T06:12:00.793Z,101480
2023-05-19T06:13:00.957Z,101480
2023-05-19T06:14:00.814Z,101480
2023-05-19T06:15:01.818Z,101480
2023-05-19T06:16:02.080Z,101480
2023-05-19T06:17:00.791Z,101480
2023-05-19T06:18:00.903Z,101480
2023-05-19T06:19:00.845Z,101480
2023-05-19T06:20:01.920Z,101480
2023-05-19T06:21:00.876Z,101480
2023-05-19T06:22:00.833Z,101480
2023-05-19T06:23:01.728Z,101480
2023-05-19T06:24:00.825Z,101480
2023-05-19T06:25:00.810Z,101480
2023-05-19T06:26:01.106Z,101480
2023-05-19T06:27:00.836Z,101480
2023-05-19T06:28:00.819Z,101480
2023-05-19T06:29:00.813Z,101480
2023-05-19T06:30:00.958Z,101480
2023-05-19T06:31:00.829Z,101490
2023-05-19T06:32:00.854Z,101490
2023-05-19T06:33:00.962Z,101480
2023-05-19T06:34:00.849Z,101490
2023-05-19T06:35:00.836Z,101490
2023-05-19T06:36:00.828Z,101490
2023-05-19T06:37:00.814Z,101490
2023-05-19T06:38:00.808Z,101490
2023-05-19T06:39:02.529Z,101490
2023-05-19T06:40:00.850Z,101490
2023-05-19T06:41:00.820Z,101490
2023-05-19T06:42:00.781Z,101490
2023-05-19T06:43:00.820Z,101490
2023-05-19T06:44:00.905Z,101490
2023-05-19T06:45:00.896Z,101490
2023-05-19T06:46:00.952Z,101490
2023-05-19T06:47:00.838Z,101480
2023-05-19T06:48:00.898Z,101480
2023-05-19T06:49:00.867Z,101480
2023-05-19T06:50:00.845Z,101480
2023-05-19T06:51:00.802Z,101480
2023-05-19T06:52:00.781Z,101480
2023-05-19T06:53:00.823Z,101480
2023-05-19T06:54:00.971Z,101480
2023-05-19T06:55:01.094Z,101480
2023-05-19T06:56:00.848Z,101480
2023-05-19T06:57:00.781Z,101480
2023-05-19T06:58:00.846Z,101480
2023-05-19T06:59:00.800Z,101480
2023-05-19T07:00:00.961Z,101480
2023-05-19T07:01:00.849Z,101480
2023-05-19T07:02:00.836Z,101480
2023-05-19T07:03:00.889Z,101470
2023-05-19T07:04:00.920Z,101470
2023-05-19T07:05:00.801Z,101480
2023-05-19T07:06:00.887Z,101470
2023-05-19T07:07:00.797Z,101470
2023-05-19T07:08:00.811Z,101470
2023-05-19T07:09:00.811Z,101470
2023-05-19T07:10:00.832Z,101470
2023-05-19T07:11:00.812Z,101470
2023-05-19T07:12:00.776Z,101470
2023-05-19T07:13:00.811Z,101470
2023-05-19T07:14:00.819Z,101470
2023-05-19T07:15:00.845Z,101460
2023-05-19T07:16:00.926Z,101460
2023-05-19T07:17:00.937Z,101460
2023-05-19T07:18:00.848Z,101460
2023-05-19T07:19:00.850Z,101450
2023-05-19T07:20:00.827Z,101460
2023-05-19T07:21:00.822Z,101460
2023-05-19T07:22:00.791Z,101450
2023-05-19T07:23:00.820Z,101450
2023-05-19T07:24:00.821Z,101450
2023-05-19T07:25:00.899Z,101450
2023-05-19T07:26:00.844Z,101450
2023-05-19T07:27:00.857Z,101450
2023-05-19T07:28:00.876Z,101450
2023-05-19T07:29:00.803Z,101440
2023-05-19T07:30:00.888Z,101450
2023-05-19T07:31:00.819Z,101440
2023-05-19T07:32:00.831Z,101440
2023-05-19T07:33:00.926Z,101440
2023-05-19T07:34:01.878Z,101440
2023-05-19T07:35:00.989Z,101440
2023-05-19T07:36:00.825Z,101440
2023-05-19T07:37:00.833Z,101430
2023-05-19T07:38:00.808Z,101430
2023-05-19T07:39:00.913Z,101430
2023-05-19T07:40:00.946Z,101440
2023-05-19T07:41:01.408Z,101430
2023-05-19T07:42:00.985Z,101430
2023-05-19T07:43:00.803Z,101430
2023-05-19T07:44:01.071Z,101430
2023-05-19T07:45:01.023Z,101430
2023-05-19T07:46:00.867Z,101430
2023-05-19T07:47:00.854Z,101430
2023-05-19T07:48:00.999Z,101430
2023-05-19T07:49:00.892Z,101430
2023-05-19T07:50:00.964Z,101440
2023-05-19T07:51:01.197Z,101440
2023-05-19T07:52:00.818Z,101440
2023-05-19T07:53:00.798Z,101440
2023-05-19T07:54:00.810Z,101430
2023-05-19T07:55:00.896Z,101440
2023-05-19T07:56:00.782Z,101440
2023-05-19T07:57:00.832Z,101440
2023-05-19T07:58:00.752Z,101440
2023-05-19T07:59:00.801Z,101430
2023-05-19T08:00:00.902Z,101430
2023-05-19T08:01:00.932Z,101430
2023-05-19T08:02:00.888Z,101430
2023-05-19T08:03:00.844Z,101430
2023-05-19T08:04:00.848Z,101430
2023-05-19T08:05:00.760Z,101430
2023-05-19T08:06:00.800Z,101430
2023-05-19T08:07:00.793Z,101430
2023-05-19T08:08:01.134Z,101420
2023-05-19T08:09:00.743Z,101430
2023-05-19T08:10:01.052Z,101430
2023-05-19T08:11:01.563Z,101430
2023-05-19T08:12:00.927Z,101430
2023-05-19T08:13:00.777Z,101420
2023-05-19T08:14:00.833Z,101430
2023-05-19T08:15:01.739Z,101430
2023-05-19T08:16:00.913Z,101430
2023-05-19T08:17:00.774Z,101430
2023-05-19T08:18:00.832Z,101430
2023-05-19T08:19:00.866Z,101430
2023-05-19T08:20:00.776Z,101430
2023-05-19T08:21:00.782Z,101430
2023-05-19T08:22:00.792Z,101430
2023-05-19T08:23:00.888Z,101430
2023-05-19T08:24:00.797Z,101430
2023-05-19T08:25:00.840Z,101430
2023-05-19T08:26:00.787Z,101430
2023-05-19T08:27:00.816Z,101430
2023-05-19T08:28:00.770Z,101430
2023-05-19T08:29:00.792Z,101430
2023-05-19T08:30:00.770Z,101430
2023-05-19T08:31:00.813Z,101430
2023-05-19T08:32:00.800Z,101430
2023-05-19T08:33:01.156Z,101430
2023-05-19T08:34:00.830Z,101430
2023-05-19T08:35:00.802Z,101430
2023-05-19T08:36:00.793Z,101430
2023-05-19T08:37:00.817Z,101430
2023-05-19T08:38:00.849Z,101430
2023-05-19T08:39:00.857Z,101430
2023-05-19T08:40:00.801Z,101430
2023-05-19T08:41:00.816Z,101430
2023-05-19T08:42:00.787Z,101430
2023-05-19T08:43:00.777Z,101430
2023-05-19T08:44:00.801Z,101430
2023-05-19T08:45:01.310Z,101430
2023-05-19T08:46:02.698Z,101420
2023-05-19T08:47:02.543Z,101420
2023-05-19T08:48:01.928Z,101420
2023-05-19T08:49:02.891Z,101420
2023-05-19T08:50:05.401Z,101420
2023-05-19T08:51:10.695Z,101420
2023-05-19T08:52:01.835Z,101420
2023-05-19T08:53:00.802Z,101420
2023-05-19T08:54:06.391Z,101420
2023-05-19T08:55:07.833Z,101420
2023-05-19T08:56:03.857Z,101420
2023-05-19T08:57:01.017Z,101420
2023-05-19T08:58:02.483Z,101420
2023-05-19T08:59:01.191Z,101420
2023-05-19T09:00:01.870Z,101420
2023-05-19T09:01:01.568Z,101430
2023-05-19T09:02:01.556Z,101420
2023-05-19T09:04:01.708Z,101420
2023-05-19T09:05:01.466Z,101430
2023-05-19T09:06:00.972Z,101430
2023-05-19T09:07:00.872Z,101430
2023-05-19T09:08:02.223Z,101430
2023-05-19T09:09:00.869Z,101430
2023-05-19T09:10:00.934Z,101430
2023-05-19T09:11:00.855Z,101430
2023-05-19T09:12:00.982Z,101430
2023-05-19T09:13:00.810Z,101430
2023-05-19T09:14:00.791Z,101430
2023-05-19T09:15:01.642Z,101420
2023-05-19T09:16:01.141Z,101430
2023-05-19T09:17:01.221Z,101430
2023-05-19T09:18:04.870Z,101430
2023-05-19T09:19:00.854Z,101430
2023-05-19T09:20:01.406Z,101420
2023-05-19T09:21:00.886Z,101430
2023-05-19T09:22:01.564Z,101420
2023-05-19T09:23:00.809Z,101430
2023-05-19T09:24:04.350Z,101430
2023-05-19T09:25:00.820Z,101420
2023-05-19T09:26:01.771Z,101420
2023-05-19T09:27:00.814Z,101430
2023-05-19T09:28:00.844Z,101430
2023-05-19T09:29:00.888Z,101430
2023-05-19T09:30:06.574Z,101430
2023-05-19T09:31:02.982Z,101430
2023-05-19T09:32:01.198Z,101430
2023-05-19T09:33:00.851Z,101430
2023-05-19T09:34:00.804Z,101420
2023-05-19T09:35:01.867Z,101420
2023-05-19T09:36:01.013Z,101420
2023-05-19T09:37:00.839Z,101410
2023-05-19T09:38:00.803Z,101410
2023-05-19T09:39:00.873Z,101410
2023-05-19T09:40:02.707Z,101410
2023-05-19T09:41:00.954Z,101410
2023-05-19T09:42:03.391Z,101420
2023-05-19T09:43:04.024Z,101420
2023-05-19T09:44:00.823Z,101410
2023-05-19T09:45:01.619Z,101410
2023-05-19T09:46:04.268Z,101420
2023-05-19T09:47:00.767Z,101420
2023-05-19T09:48:04.202Z,101410
2023-05-19T09:49:08.303Z,101410
2023-05-19T09:50:00.816Z,101400
2023-05-19T09:51:01.300Z,101410
2023-05-19T09:52:02.306Z,101410
2023-05-19T09:53:00.880Z,101400
2023-05-19T09:54:00.833Z,101410
2023-05-19T09:55:01.193Z,101410
2023-05-19T09:56:01.535Z,101410
2023-05-19T09:57:01.658Z,101410
2023-05-19T09:58:00.893Z,101410
2023-05-19T09:59:04.032Z,101410
2023-05-19T10:00:01.697Z,101410
2023-05-19T10:01:01.931Z,101410
2023-05-19T10:02:01.112Z,101410
2023-05-19T10:03:02.947Z,101400
2023-05-19T10:04:03.807Z,101400
2023-05-19T10:05:01.508Z,101400
2023-05-19T10:06:00.863Z,101400
2023-05-19T10:07:03.123Z,101400
2023-05-19T10:08:02.022Z,101400
2023-05-19T10:09:01.137Z,101400
2023-05-19T10:10:01.542Z,101410
2023-05-19T10:11:00.820Z,101400
2023-05-19T10:12:01.380Z,101410
2023-05-19T10:13:01.266Z,101410
2023-05-19T10:14:00.769Z,101410
2023-05-19T10:15:01.463Z,101410
2023-05-19T10:16:01.216Z,101410
2023-05-19T10:17:00.887Z,101410
2023-05-19T10:18:01.993Z,101410
2023-05-19T10:19:01.301Z,101410
2023-05-19T10:20:01.279Z,101410
2023-05-19T10:21:01.418Z,101410
2023-05-19T10:22:00.788Z,101410
2023-05-19T10:23:00.923Z,101410
2023-05-19T10:24:00.864Z,101410
2023-05-19T10:25:00.786Z,101400
2023-05-19T10:26:02.864Z,101410
2023-05-19T10:27:10.645Z,101400
2023-05-19T10:28:01.802Z,101400
2023-05-19T10:29:02.068Z,101410
2023-05-19T10:30:03.133Z,101400
2023-05-19T10:31:02.114Z,101400
2023-05-19T10:32:04.429Z,101400
2023-05-19T10:33:02.692Z,101390
2023-05-19T10:34:01.793Z,101400
2023-05-19T10:35:01.814Z,101400
2023-05-19T10:36:10.662Z,101390
2023-05-19T10:37:00.748Z,101390
2023-05-19T10:38:09.402Z,101390
2023-05-19T10:39:05.499Z,101390
2023-05-19T10:40:04.108Z,101390
2023-05-19T10:41:06.544Z,101390
2023-05-19T10:42:00.769Z,101390
2023-05-19T10:43:01.778Z,101380
2023-05-19T10:44:04.122Z,101370
2023-05-19T10:45:08.701Z,101380
2023-05-19T10:46:00.814Z,101370
2023-05-19T10:47:00.905Z,101370
2023-05-19T10:48:00.919Z,101370
2023-05-19T10:49:00.768Z,101370
2023-05-19T10:50:01.032Z,101370
2023-05-19T10:51:01.409Z,101370
2023-05-19T10:52:00.982Z,101370
2023-05-19T10:53:01.394Z,101370
2023-05-19T10:54:01.544Z,101370
2023-05-19T10:55:00.804Z,101370
2023-05-19T10:56:01.445Z,101380
2023-05-19T10:57:00.837Z,101370
2023-05-19T10:58:00.782Z,101380
2023-05-19T10:59:01.568Z,101370
2023-05-19T11:00:03.498Z,101380
2023-05-19T11:01:00.805Z,101370
2023-05-19T11:02:04.484Z,101380
2023-05-19T11:03:10.684Z,101370
2023-05-19T11:04:08.797Z,101370
2023-05-19T11:05:06.961Z,101370
2023-05-19T11:06:10.698Z,101380
2023-05-19T11:07:00.973Z,101370
2023-05-19T11:08:00.942Z,101370
2023-05-19T11:09:08.098Z,101370
2023-05-19T11:10:04.788Z,101370
2023-05-19T11:11:10.654Z,101370
2023-05-19T11:12:01.893Z,101370
2023-05-19T11:13:00.991Z,101380
2023-05-19T11:14:00.784Z,101370
2023-05-19T11:15:01.990Z,101370
2023-05-19T11:16:06.117Z,101370
2023-05-19T11:17:01.049Z,101370
2023-05-19T11:18:01.174Z,101370
2023-05-19T11:19:01.096Z,101380
2023-05-19T11:20:00.784Z,101370
2023-05-19T11:21:00.875Z,101380
2023-05-19T11:22:08.834Z,101380
2023-05-19T11:23:00.834Z,101370
2023-05-19T11:24:00.973Z,101380
2023-05-19T11:25:00.811Z,101380
2023-05-19T11:26:01.276Z,101380
2023-05-19T11:27:10.659Z,101380
2023-05-19T11:28:01.478Z,101390
2023-05-19T11:29:01.163Z,101380
2023-05-19T11:30:07.361Z,101380
2023-05-19T11:31:01.272Z,101390
2023-05-19T11:32:00.908Z,101380
2023-05-19T11:33:01.344Z,101390
2023-05-19T11:34:01.116Z,101390
2023-05-19T11:35:01.391Z,101390
2023-05-19T11:36:01.643Z,101390
2023-05-19T11:37:00.836Z,101390
2023-05-19T11:38:01.037Z,101390
2023-05-19T11:39:01.105Z,101390
2023-05-19T11:40:01.468Z,101390
2023-05-19T11:41:02.465Z,101380
2023-05-19T11:42:00.795Z,101390
2023-05-19T11:43:00.777Z,101390
2023-05-19T11:44:00.799Z,101380
2023-05-19T11:45:01.226Z,101400
2023-05-19T11:46:00.869Z,101390
2023-05-19T11:47:00.876Z,101400
2023-05-19T11:48:03.114Z,101400
2023-05-19T11:49:00.863Z,101400
2023-05-19T11:50:00.812Z,101400
2023-05-19T11:51:00.824Z,101400
2023-05-19T11:52:01.561Z,101400
2023-05-19T11:53:00.783Z,101390
2023-05-19T11:54:01.672Z,101390
2023-05-19T11:55:00.828Z,101390
2023-05-19T11:56:02.756Z,101400
2023-05-19T11:57:01.509Z,101390
2023-05-19T11:58:04.606Z,101400
2023-05-19T11:59:00.781Z,101400
2023-05-19T12:00:01.299Z,101390
2023-05-19T12:01:02.888Z,101390
2023-05-19T12:02:10.712Z,101400
2023-05-19T12:03:00.913Z,101390
2023-05-19T12:04:01.124Z,101400
2023-05-19T12:05:00.788Z,101390
2023-05-19T12:06:02.455Z,101400
2023-05-19T12:07:00.813Z,101390
2023-05-19T12:08:01.386Z,101400
2023-05-19T12:09:00.828Z,101400
2023-05-19T12:10:00.807Z,101390
2023-05-19T12:11:00.833Z,101400
2023-05-19T12:12:01.586Z,101390
2023-05-19T12:13:00.986Z,101390
2023-05-19T12:14:00.776Z,101390
2023-05-19T12:15:01.583Z,101400
2023-05-19T12:16:02.496Z,101390
2023-05-19T12:17:10.635Z,101380
2023-05-19T12:18:01.495Z,101380
2023-05-19T12:19:01.154Z,101380
2023-05-19T12:20:01.672Z,101380
2023-05-19T12:21:00.831Z,101370
2023-05-19T12:22:02.188Z,101370
2023-05-19T12:23:01.274Z,101380
2023-05-19T12:24:01.071Z,101380
2023-05-19T12:25:01.179Z,101380
2023-05-19T12:26:00.858Z,101380
2023-05-19T12:27:10.655Z,101380
2023-05-19T12:28:00.884Z,101380
2023-05-19T12:29:00.766Z,101380